.
WxDataArchive / Data Records for 2012-07-29
2012-07-28 July 2012 2012-07-30

Data Records for Sunday, 29 July 2012

Time	Temp	Chill	HIndex	Humid	Dewpt	 Wind 	HiWind	WindDir	Rain 	Barom 
-----	----	-----	------	-----	-----	------	------	-------	-----	----- 
00:00	67.4	67.4	67.4	73	58.4	0	0	---	0.00	30.052 
00:05	67.9	67.9	67.9	72	58.5	0	0	---	0.00	30.052 
00:10	68.3	68.3	68.3	71	58.5	0	0	---	0.00	30.052 
00:15	68.4	68.4	68.4	71	58.6	0	0	---	0.00	30.050 
00:20	68.6	68.6	68.6	71	58.8	0	0	---	0.00	30.050 
00:25	68.6	68.6	68.6	71	58.8	0	1	292	0.00	30.050 
00:30	68.4	68.4	68.4	71	58.6	0	1	292	0.00	30.051 
00:35	68.4	68.4	68.4	71	58.6	0	1	292	0.00	30.051 
00:40	68.4	68.4	68.4	72	59.0	0	1	292	0.00	30.051 
00:45	68.3	68.3	68.3	72	58.9	0	0	---	0.00	30.057 
00:50	68.1	68.1	68.1	73	59.1	0	0	---	0.00	30.057 
00:55	67.9	67.9	67.9	73	58.9	0	0	---	0.00	30.057 
01:00	67.8	67.8	67.8	73	58.8	0	0	---	0.00	30.058 
01:05	67.6	67.6	67.6	74	59.0	0	0	---	0.00	30.058 
01:10	67.4	67.4	67.4	74	58.8	0	0	---	0.00	30.058 
01:15	67.1	67.1	67.1	75	58.9	0	0	---	0.00	30.060 
01:20	66.9	66.9	66.9	76	59.1	0	0	---	0.00	30.060 
01:25	66.8	66.8	66.8	76	59.0	0	0	---	0.00	30.060 
01:30	66.4	66.4	66.4	77	59.0	0	0	---	0.00	30.054 
01:35	66.3	66.3	66.3	77	58.9	0	0	---	0.00	30.054 
01:40	66.3	66.3	66.3	78	59.2	0	0	---	0.00	30.054 
01:45	66.1	66.1	66.1	78	59.0	0	0	---	0.00	30.049 
01:50	66.0	66.0	66.0	79	59.3	0	0	---	0.00	30.049 
01:55	65.8	65.8	65.8	79	59.1	0	0	---	0.00	30.049 
02:00	65.6	65.6	65.6	80	59.3	0	0	---	0.00	30.053 
02:05	65.5	65.5	65.5	80	59.2	0	0	---	0.00	30.053 
02:10	65.5	65.5	65.5	80	59.2	0	0	---	0.00	30.053 
02:15	65.5	65.5	65.5	81	59.5	0	0	---	0.00	30.050 
02:20	65.3	65.3	65.3	81	59.3	0	0	---	0.00	30.050 
02:25	65.2	65.2	65.2	81	59.2	0	0	---	0.00	30.050 
02:30	65.2	65.2	65.2	81	59.2	0	0	---	0.00	30.053 
02:35	65.0	65.0	65.0	81	59.0	0	0	---	0.00	30.053 
02:40	64.8	64.8	64.8	81	58.8	0	0	---	0.00	30.053 
02:45	64.7	64.7	64.7	82	59.1	0	0	---	0.00	30.048 
02:50	64.5	64.5	64.5	82	58.9	0	0	---	0.00	30.048 
02:55	64.2	64.2	64.2	83	58.9	0	0	---	0.00	30.048 
03:00	64.0	64.0	64.0	83	58.7	0	0	---	0.00	30.050 
03:05	63.9	63.9	63.9	84	59.0	0	0	---	0.00	30.050 
03:10	63.9	63.9	63.9	84	59.0	0	0	---	0.00	30.050 
03:15	63.7	63.7	63.7	84	58.8	0	0	---	0.00	30.051 
03:20	63.5	63.5	63.5	84	58.6	0	0	---	0.00	30.051 
03:25	63.4	63.4	63.4	84	58.5	0	0	---	0.00	30.051 
03:30	63.4	63.4	63.4	85	58.8	0	0	---	0.00	30.053 
03:35	63.2	63.2	63.2	85	58.6	0	0	---	0.00	30.053 
03:40	63.1	63.1	63.1	85	58.5	0	0	---	0.00	30.053 
03:45	62.9	62.9	62.9	85	58.3	0	0	---	0.00	30.053 
03:50	62.7	62.7	62.7	85	58.1	0	0	---	0.00	30.053 
03:55	62.6	62.6	62.6	86	58.3	0	0	---	0.00	30.053 
04:00	62.4	62.4	62.4	86	58.2	0	0	---	0.00	30.050 
04:05	62.3	62.3	62.3	86	58.1	0	0	---	0.00	30.050 
04:10	62.1	62.1	62.1	87	58.2	0	0	---	0.00	30.050 
04:15	62.1	62.1	62.1	87	58.2	0	0	---	0.00	30.049 
04:20	62.0	62.0	62.0	87	58.1	0	0	---	0.00	30.049 
04:25	61.8	61.8	61.8	88	58.2	0	0	---	0.00	30.049 
04:30	61.6	61.6	61.6	88	58.0	0	0	---	0.00	30.048 
04:35	61.5	61.5	61.5	88	57.9	0	0	---	0.00	30.048 
04:40	61.5	61.5	61.5	88	57.9	0	0	---	0.00	30.048 
04:45	61.3	61.3	61.3	88	57.7	0	0	---	0.00	30.049 
04:50	61.3	61.3	61.3	88	57.7	0	0	---	0.00	30.049 
04:55	61.2	61.2	61.2	89	57.9	0	0	---	0.00	30.049 
05:00	61.2	61.2	61.2	89	57.9	0	0	---	0.00	30.052 
05:05	61.2	61.2	61.2	89	57.9	0	0	---	0.00	30.052 
05:10	61.2	61.2	61.2	89	57.9	0	0	---	0.00	30.052 
05:15	61.2	61.2	61.2	89	57.9	0	0	---	0.00	30.053 
05:20	61.2	61.2	61.2	89	57.9	0	0	---	0.00	30.053 
05:25	61.0	61.0	61.0	89	57.7	0	0	---	0.00	30.053 
05:30	60.9	60.9	60.9	89	57.6	0	0	---	0.00	30.052 
05:35	60.9	60.9	60.9	89	57.6	0	0	---	0.00	30.052 
05:40	60.7	60.7	60.7	90	57.7	0	0	---	0.00	30.052 
05:45	60.5	60.5	60.5	90	57.5	0	0	---	0.00	30.060 
05:50	60.4	60.4	60.4	90	57.4	0	0	---	0.00	30.060 
05:55	60.2	60.2	60.2	90	57.3	0	0	---	0.00	30.060 
06:00	60.1	60.1	60.1	90	57.2	0	0	---	0.00	30.062 
06:05	60.1	60.1	60.1	90	57.2	0	0	---	0.00	30.062 
06:10	59.9	59.9	59.9	90	57.0	0	0	---	0.00	30.062 
06:15	59.8	59.8	59.8	90	56.9	0	0	---	0.00	30.068 
06:20	59.8	59.8	59.8	91	57.2	0	0	---	0.00	30.068 
06:25	59.8	59.8	59.8	91	57.2	0	0	---	0.00	30.068 
06:30	59.6	59.6	59.6	91	57.0	0	0	---	0.00	30.080 
06:35	59.8	59.8	59.8	91	57.2	0	0	---	0.00	30.080 
06:40	59.8	59.8	59.8	91	57.2	0	0	---	0.00	30.080 
06:45	59.8	59.8	59.8	91	57.2	0	0	---	0.00	30.082 
06:50	59.8	59.8	59.8	92	57.5	0	0	---	0.00	30.082 
06:55	59.8	59.8	59.8	92	57.5	0	0	---	0.00	30.082 
07:00	59.8	59.8	59.8	92	57.5	0	0	---	0.00	30.081 
07:05	59.9	59.9	59.9	92	57.6	0	0	---	0.00	30.081 
07:10	59.9	59.9	59.9	92	57.6	0	0	---	0.00	30.081 
07:15	60.1	60.1	60.1	92	57.8	0	0	---	0.00	30.081 
07:20	60.2	60.2	60.2	92	57.9	0	0	---	0.00	30.081 
07:25	60.4	60.4	60.4	92	58.1	0	0	---	0.00	30.081 
07:30	60.5	60.5	60.5	92	58.2	0	0	---	0.00	30.086 
07:35	60.9	60.9	60.9	92	58.6	0	0	---	0.00	30.086 
07:40	61.3	61.3	61.3	92	59.0	0	0	---	0.00	30.086 
07:45	62.0	62.0	62.0	92	59.6	0	1	292	0.00	30.088 
07:50	62.9	62.9	62.9	92	60.5	0	0	---	0.00	30.088 
07:55	63.7	63.7	63.7	90	60.7	0	0	---	0.00	30.088 
08:00	64.5	64.5	64.5	88	60.9	0	0	---	0.00	30.089 
08:05	65.3	65.3	65.3	85	60.7	0	0	---	0.00	30.089 
08:10	66.4	66.4	66.4	81	60.4	0	0	---	0.00	30.089 
08:15	67.4	67.4	67.4	78	60.3	0	1	315	0.00	30.093 
08:20	68.8	68.8	68.8	73	59.8	0	0	---	0.00	30.093 
08:25	69.8	69.8	69.8	70	59.6	0	3	0	0.00	30.093 
08:30	70.6	70.6	70.6	66	58.7	1	3	0	0.00	30.091 
08:35	70.8	70.8	70.8	69	60.1	1	3	0	0.00	30.091 
08:40	70.9	70.9	70.9	68	59.8	1	3	0	0.00	30.091 
08:45	71.5	71.5	71.5	67	60.0	1	3	0	0.00	30.091 
08:50	71.8	71.8	71.8	66	59.8	1	3	0	0.00	30.091 
08:55	72.1	72.1	72.1	65	59.7	0	2	0	0.00	30.091 
09:00	72.7	72.7	72.7	64	59.8	0	3	0	0.00	30.091 
09:05	73.0	73.0	73.0	64	60.1	1	3	0	0.00	30.091 
09:10	73.3	73.3	73.3	65	60.8	0	3	0	0.00	30.091 
09:15	73.5	73.5	73.5	65	61.0	1	4	0	0.00	30.093 
09:20	73.9	73.9	73.9	65	61.4	0	3	0	0.00	30.093 
09:25	74.2	74.2	74.2	65	61.7	1	3	0	0.00	30.093 
09:30	74.9	74.9	74.9	64	61.9	0	1	0	0.00	30.093 
09:35	75.6	75.6	77.7	62	61.6	0	2	0	0.00	30.093 
09:40	76.0	76.0	77.9	63	62.5	0	1	0	0.00	30.093 
09:45	76.3	76.3	78.2	62	62.3	1	2	0	0.00	30.086 
09:50	76.8	76.8	78.6	60	61.8	0	3	0	0.00	30.086 
09:55	77.4	77.4	79.1	61	62.9	0	2	0	0.00	30.086 
10:00	77.7	77.7	79.4	61	63.2	0	2	0	0.00	30.084 
10:05	77.9	77.9	79.6	60	62.9	0	2	0	0.00	30.084 
10:10	77.7	77.7	79.4	60	62.7	0	2	0	0.00	30.084 
10:15	77.9	77.9	79.5	59	62.4	0	2	0	0.00	30.084 
10:20	78.5	78.5	80.2	61	63.9	0	1	0	0.00	30.084 
10:25	79.2	79.2	80.8	59	63.6	0	1	0	0.00	30.084 
10:30	79.8	79.8	81.3	57	63.2	0	1	0	0.00	30.084 
10:35	80.5	80.5	81.7	54	62.3	1	2	0	0.00	30.084 
10:40	80.9	80.9	82.3	55	63.2	0	2	0	0.00	30.084 
10:45	81.1	81.1	82.3	54	62.9	0	1	0	0.00	30.082 
10:50	81.2	81.2	82.6	55	63.5	0	1	0	0.00	30.082 
10:55	81.6	81.6	82.8	53	62.8	0	2	0	0.00	30.082 
11:00	82.2	82.2	82.8	49	61.1	0	1	0	0.00	30.080 
11:05	82.0	82.0	82.8	50	61.5	0	1	0	0.00	30.080 
11:10	82.8	82.8	83.2	47	60.5	0	1	0	0.00	30.080 
11:15	82.8	82.8	82.7	44	58.6	0	2	0	0.00	30.077 
11:20	82.0	82.0	82.2	46	59.1	0	1	0	0.00	30.077 
11:25	81.1	81.1	81.6	48	59.5	0	1	0	0.00	30.077 
11:30	80.1	80.1	80.7	48	58.6	0	1	0	0.00	30.077 
11:35	79.4	79.4	80.0	46	56.8	0	0	---	0.00	30.077 
11:40	78.8	78.8	79.6	47	56.8	0	1	0	0.00	30.077 
11:45	78.5	78.5	79.5	48	57.2	0	1	0	0.00	30.076 
11:50	78.3	78.3	79.4	49	57.5	0	0	---	0.00	30.076 
11:55	78.5	78.5	79.6	50	58.3	0	2	0	0.00	30.076 
12:00	79.6	79.6	80.1	46	57.0	0	4	0	0.00	30.072 
12:05	80.7	80.7	80.9	45	57.4	2	6	90	0.00	30.072 
12:10	81.1	81.1	81.1	44	57.1	1	6	90	0.00	30.072 
12:15	80.9	80.9	81.2	46	58.2	1	5	90	0.00	30.067 
12:20	80.5	80.5	80.8	46	57.8	0	1	90	0.00	30.067 
12:25	80.5	80.5	80.7	45	57.2	0	1	90	0.00	30.067 
12:30	80.5	80.5	80.6	43	55.9	0	1	90	0.00	30.064 
12:35	80.1	80.1	80.4	45	56.8	1	3	90	0.00	30.064 
12:40	79.6	79.6	80.0	45	56.4	0	2	90	0.00	30.064 
12:45	79.9	79.9	80.6	49	59.0	1	4	90	0.00	30.060 
12:50	80.7	80.7	80.9	45	57.4	2	5	90	0.00	30.060 
12:55	81.4	81.4	81.5	45	58.0	1	3	90	0.00	30.060 
13:00	82.0	82.0	81.8	43	57.3	1	5	90	0.00	30.057 
13:05	81.6	81.6	81.2	41	55.6	1	5	90	0.00	30.057 
13:10	81.2	81.2	81.1	43	56.5	0	1	90	0.00	30.057 
13:15	80.9	80.9	80.9	43	56.3	0	2	90	0.00	30.057 
13:20	80.5	80.5	80.6	43	55.9	0	3	90	0.00	30.057 
13:25	80.3	80.3	80.6	45	57.0	0	1	90	0.00	30.057 
13:30	80.9	80.9	81.1	45	57.5	0	1	90	0.00	30.048 
13:35	81.2	81.2	81.5	46	58.4	0	1	90	0.00	30.048 
13:40	82.0	82.0	82.1	45	58.5	1	2	90	0.00	30.048 
13:45	82.6	82.6	82.5	44	58.4	2	4	90	0.00	30.044 
13:50	82.8	82.8	82.0	39	55.3	1	2	90	0.00	30.044 
13:55	82.8	82.8	82.6	43	58.0	1	5	90	0.00	30.044 
14:00	82.4	82.4	82.2	43	57.6	2	5	90	0.00	30.042 
14:05	82.0	82.0	81.8	43	57.3	1	3	90	0.00	30.042 
14:10	81.6	81.6	81.5	43	56.9	2	4	90	0.00	30.042 
14:15	82.0	82.0	81.7	42	56.6	1	4	90	0.00	30.038 
14:20	82.6	82.6	82.4	43	57.8	2	6	90	0.00	30.038 
14:25	83.0	83.0	82.3	40	56.2	2	5	90	0.00	30.038 
14:30	83.4	83.4	83.3	44	59.2	2	5	90	0.00	30.033 
14:35	83.8	83.8	82.9	39	56.2	1	2	90	0.00	30.033 
14:40	84.3	84.3	83.4	39	56.6	0	2	90	0.00	30.033 
14:45	83.8	83.8	82.8	38	55.5	1	3	0	0.00	30.029 
14:50	83.0	83.0	82.2	39	55.5	0	1	0	0.00	30.029 
14:55	82.6	82.6	82.1	41	56.5	0	1	0	0.00	30.029 
15:00	82.0	82.0	81.6	41	55.9	0	2	0	0.00	30.030 
15:05	81.2	81.2	80.8	40	54.6	0	3	0	0.00	30.030 
15:10	81.2	81.2	81.2	44	57.2	0	0	---	0.00	30.030 
15:15	81.6	81.6	81.1	40	54.9	1	4	90	0.00	30.031 
15:20	81.8	81.8	81.3	40	55.1	1	2	90	0.00	30.031 
15:25	81.8	81.8	81.4	41	55.8	2	4	90	0.00	30.031 
15:30	81.6	81.6	81.2	41	55.6	1	3	90	0.00	30.024 
15:35	82.4	82.4	81.6	38	54.2	0	4	90	0.00	30.024 
15:40	83.4	83.4	82.6	39	55.8	1	2	90	0.00	30.024 
15:45	83.8	83.8	82.8	38	55.5	1	3	338	0.00	30.017 
15:50	84.0	84.0	82.7	36	54.1	1	3	135	0.00	30.017 
15:55	84.3	84.3	83.3	38	55.9	2	4	270	0.00	30.017 
16:00	84.5	84.5	83.5	38	56.1	3	4	68	0.00	30.015 
16:05	84.7	84.7	83.7	38	56.2	1	4	68	0.00	30.015 
16:10	84.5	84.5	83.3	37	55.3	0	3	112	0.00	30.015 
16:15	84.3	84.3	83.3	38	55.9	0	2	112	0.00	30.014 
16:20	83.8	83.8	82.8	38	55.5	0	1	112	0.00	30.014 
16:25	83.4	83.4	82.4	38	55.1	0	2	112	0.00	30.014 
16:30	83.4	83.4	82.3	37	54.4	0	2	112	0.00	30.012 
16:35	83.8	83.8	82.9	39	56.2	1	3	135	0.00	30.012 
16:40	84.3	84.3	83.6	40	57.3	1	3	135	0.00	30.012 
16:45	84.9	84.9	83.9	38	56.4	1	2	135	0.00	30.002 
16:50	85.1	85.1	84.1	38	56.6	1	4	135	0.00	30.002 
16:55	85.1	85.1	84.1	38	56.6	0	2	112	0.00	30.002 
17:00	85.3	85.3	84.1	37	56.0	1	3	112	0.00	29.997 
17:05	85.5	85.5	84.2	36	55.5	1	4	112	0.00	29.997 
17:10	85.5	85.5	84.0	35	54.7	1	3	112	0.00	29.997 
17:15	85.7	85.7	84.7	38	57.1	1	3	112	0.00	29.997 
17:20	85.5	85.5	84.3	37	56.2	1	3	112	0.00	29.997 
17:25	85.5	85.5	84.0	35	54.7	1	3	112	0.00	29.997 
17:30	85.5	85.5	84.3	37	56.2	1	4	112	0.00	29.996 
17:35	85.3	85.3	84.0	36	55.3	1	3	90	0.00	29.996 
17:40	85.1	85.1	84.1	38	56.6	1	3	90	0.00	29.996 
17:45	85.1	85.1	83.6	35	54.3	1	3	90	0.00	29.992 
17:50	85.1	85.1	83.9	37	55.9	1	3	112	0.00	29.992 
17:55	85.1	85.1	84.3	39	57.3	1	3	135	0.00	29.992 
18:00	84.9	84.9	83.9	38	56.4	1	4	135	0.00	29.995 
18:05	84.9	84.9	83.9	38	56.4	1	3	135	0.00	29.995 
18:10	84.5	84.5	83.8	40	57.5	2	5	112	0.00	29.995 
18:15	84.5	84.5	83.6	39	56.8	0	4	90	0.00	29.989 
18:20	84.3	84.3	83.4	39	56.6	1	4	90	0.00	29.989 
18:25	84.3	84.3	83.4	39	56.6	1	3	90	0.00	29.989 
18:30	84.0	84.0	83.4	41	57.7	1	5	90	0.00	29.987 
18:35	83.4	83.4	82.6	39	55.8	1	4	90	0.00	29.987 
18:40	83.2	83.2	82.5	40	56.3	1	2	90	0.00	29.987 
18:45	83.0	83.0	82.3	40	56.2	1	3	90	0.00	29.987 
18:50	83.0	83.0	82.3	40	56.2	0	2	90	0.00	29.987 
18:55	82.8	82.8	82.4	42	57.3	2	5	90	0.00	29.987 
19:00	82.8	82.8	82.2	40	56.0	0	2	90	0.00	29.987 
19:05	82.6	82.6	82.0	40	55.8	1	2	90	0.00	29.987 
19:10	82.4	82.4	81.9	41	56.3	1	3	90	0.00	29.987 
19:15	82.2	82.2	81.6	40	55.4	0	2	90	0.00	29.983 
19:20	82.0	82.0	81.6	41	55.9	0	2	90	0.00	29.983 
19:25	81.8	81.8	81.4	41	55.8	0	1	90	0.00	29.983 
19:30	81.6	81.6	81.2	41	55.6	0	1	90	0.00	29.983 
19:35	81.4	81.4	81.1	41	55.4	0	1	90	0.00	29.983 
19:40	81.2	81.2	80.9	41	55.2	0	0	---	0.00	29.983 
19:45	81.1	81.1	80.9	42	55.8	0	0	---	0.00	29.983 
19:50	80.9	80.9	80.8	42	55.6	0	0	---	0.00	29.983 
19:55	80.9	80.9	80.9	43	56.3	0	0	---	0.00	29.983 
20:00	80.7	80.7	80.6	42	55.4	0	0	---	0.00	29.983 
20:05	80.5	80.5	80.5	42	55.3	0	0	---	0.00	29.983 
20:10	80.3	80.3	80.3	42	55.1	0	0	---	0.00	29.983 
20:15	79.9	79.9	80.1	43	55.4	0	0	---	0.00	29.978 
20:20	79.8	79.8	80.2	45	56.5	0	0	---	0.00	29.978 
20:25	79.4	79.4	79.9	45	56.2	0	0	---	0.00	29.978 
20:30	78.8	78.8	79.5	45	55.6	0	0	---	0.00	29.977 
20:35	78.5	78.5	79.4	46	56.0	0	0	---	0.00	29.977 
20:40	78.3	78.3	79.3	47	56.4	0	0	---	0.00	29.977 
20:45	77.9	77.9	79.0	47	56.0	0	0	---	0.00	29.978 
20:50	77.6	77.6	78.9	49	56.9	0	0	---	0.00	29.978 
20:55	77.2	77.2	78.7	50	57.1	0	0	---	0.00	29.978 
21:00	76.8	76.8	78.5	51	57.3	0	0	---	0.00	29.976 
21:05	76.5	76.5	78.3	51	57.0	0	0	---	0.00	29.976 
21:10	76.1	76.1	78.1	51	56.6	0	0	---	0.00	29.976 
21:15	75.6	75.6	77.9	52	56.7	0	0	---	0.00	29.974 
21:20	75.1	75.1	77.6	53	56.8	0	0	---	0.00	29.974 
21:25	74.6	74.6	74.6	54	56.8	0	0	---	0.00	29.974 
21:30	74.2	74.2	74.2	55	57.0	0	0	---	0.00	29.977 
21:35	73.9	73.9	73.9	56	57.2	0	0	---	0.00	29.977 
21:40	73.5	73.5	73.5	57	57.3	0	0	---	0.00	29.977 
21:45	73.2	73.2	73.2	58	57.5	0	0	---	0.00	29.979 
21:50	72.8	72.8	72.8	58	57.1	0	0	---	0.00	29.979 
21:55	72.5	72.5	72.5	60	57.8	0	0	---	0.00	29.979 
22:00	72.3	72.3	72.3	61	58.1	0	0	---	0.00	29.983 
22:05	72.0	72.0	72.0	62	58.3	0	0	---	0.00	29.983 
22:10	71.6	71.6	71.6	62	57.9	0	0	---	0.00	29.983 
22:15	71.3	71.3	71.3	63	58.0	0	0	---	0.00	29.980 
22:20	71.1	71.1	71.1	64	58.3	0	0	---	0.00	29.980 
22:25	70.8	70.8	70.8	65	58.4	0	0	---	0.00	29.980 
22:30	70.6	70.6	70.6	65	58.2	0	0	---	0.00	29.985 
22:35	70.4	70.4	70.4	66	58.5	0	0	---	0.00	29.985 
22:40	70.1	70.1	70.1	66	58.2	0	0	---	0.00	29.985 
22:45	69.9	69.9	69.9	67	58.4	0	0	---	0.00	29.983 
22:50	69.8	69.8	69.8	68	58.7	0	0	---	0.00	29.983 
22:55	69.6	69.6	69.6	69	59.0	0	0	---	0.00	29.983 
23:00	69.6	69.6	69.6	69	59.0	0	0	---	0.00	29.984 
23:05	69.4	69.4	69.4	69	58.8	0	0	---	0.00	29.984 
23:10	69.3	69.3	69.3	70	59.1	0	0	---	0.00	29.984 
23:15	69.1	69.1	69.1	71	59.3	0	0	---	0.00	29.987 
23:20	68.9	68.9	68.9	71	59.1	0	0	---	0.00	29.987 
23:25	68.8	68.8	68.8	72	59.4	0	0	---	0.00	29.987 
23:30	68.6	68.6	68.6	73	59.6	0	0	---	0.00	29.991 
23:35	68.6	68.6	68.6	74	60.0	0	0	---	0.00	29.991 
23:40	68.4	68.4	68.4	74	59.8	0	0	---	0.00	29.991 
23:45	68.3	68.3	68.3	75	60.1	0	0	---	0.00	29.992 
23:50	68.3	68.3	68.3	75	60.1	0	0	---	0.00	29.992 
23:55	68.1	68.1	68.1	76	60.2	0	0	---	0.00	29.992 

CoCoRaHS
IN-AL-39
A2 Web Hosting
Creative Commons License
GoDaddy
search engine by freefind advanced

loaded 2018-11-22 06:37:28 • last modified 2010-11-18 10:43:29
Privacy PolicyDisclaimer
• wx.awcolley.com is powered by PmWiki v.2002016 •
• all content (unless otherwise noted) © 2018 A W Colley